Řízení letového provozu České republiky
Letiste: LKKB Aktualizace: 17.10.2017 23:52:07  UTC
 METAR LKKB 17.10. 23:00 ...
METAR LKKB 172300Z 18003KT 120V240 5000 MIFG BR NSC 10/10 Q1020=
 TAF LKKB 17.10. 17:00 ...
TAF LKKB 171700Z 1718/1818 06004KT CAVOK      BECMG 1801/1803 2000 BR SCT008      PROB30 TEMPO 1802/1806 0800 FG BKN004      BECMG 1806/1808 07005KT 6000 BKN030      TEMPO 1812/1818 9999 SCT040=